sensor_id;sensor_type;location;lat;lon;timestamp;pressure;altitude;pressure_sealevel;temperature
27826;BMP280;15077;49.704;9.908;2023-06-14T00:01:55;97819.56;;;22.22
27826;BMP280;15077;49.704;9.908;2023-06-14T00:04:21;97824.97;;;22.19
27826;BMP280;15077;49.704;9.908;2023-06-14T00:06:51;97827.03;;;22.15
27826;BMP280;15077;49.704;9.908;2023-06-14T00:09:16;97830.69;;;22.13
27826;BMP280;15077;49.704;9.908;2023-06-14T00:11:46;97819.00;;;22.09
27826;BMP280;15077;49.704;9.908;2023-06-14T00:14:13;97819.28;;;22.06
27826;BMP280;15077;49.704;9.908;2023-06-14T00:16:40;97827.16;;;22.04
27826;BMP280;15077;49.704;9.908;2023-06-14T00:19:08;97825.66;;;22.02
27826;BMP280;15077;49.704;9.908;2023-06-14T00:21:37;97828.66;;;21.97
27826;BMP280;15077;49.704;9.908;2023-06-14T00:24:03;97827.31;;;21.93
27826;BMP280;15077;49.704;9.908;2023-06-14T00:26:30;97826.75;;;21.90
27826;BMP280;15077;49.704;9.908;2023-06-14T00:28:56;97824.47;;;21.87
27826;BMP280;15077;49.704;9.908;2023-06-14T00:31:24;97823.13;;;21.83
27826;BMP280;15077;49.704;9.908;2023-06-14T00:33:50;97820.69;;;21.82
27826;BMP280;15077;49.704;9.908;2023-06-14T00:36:16;97817.53;;;21.78
27826;BMP280;15077;49.704;9.908;2023-06-14T00:38:42;97820.38;;;21.75
27826;BMP280;15077;49.704;9.908;2023-06-14T00:41:08;97820.66;;;21.72
27826;BMP280;15077;49.704;9.908;2023-06-14T00:43:33;97821.78;;;21.70
27826;BMP280;15077;49.704;9.908;2023-06-14T00:46:00;97818.50;;;21.68
27826;BMP280;15077;49.704;9.908;2023-06-14T00:48:28;97826.50;;;21.65
27826;BMP280;15077;49.704;9.908;2023-06-14T00:50:54;97818.25;;;21.61
27826;BMP280;15077;49.704;9.908;2023-06-14T00:53:20;97824.34;;;21.60
27826;BMP280;15077;49.704;9.908;2023-06-14T00:55:48;97815.22;;;21.56
27826;BMP280;15077;49.704;9.908;2023-06-14T00:58:16;97815.50;;;21.53
27826;BMP280;15077;49.704;9.908;2023-06-14T01:00:44;97820.13;;;21.50
27826;BMP280;15077;49.704;9.908;2023-06-14T01:03:12;97826.34;;;21.47
27826;BMP280;15077;49.704;9.908;2023-06-14T01:05:39;97821.44;;;21.44
27826;BMP280;15077;49.704;9.908;2023-06-14T01:08:31;97830.53;;;21.39
27826;BMP280;15077;49.704;9.908;2023-06-14T01:11:21;97813.19;;;21.32
27826;BMP280;15077;49.704;9.908;2023-06-14T01:13:50;97814.91;;;21.31
27826;BMP280;15077;49.704;9.908;2023-06-14T01:16:20;97811.25;;;21.34
27826;BMP280;15077;49.704;9.908;2023-06-14T01:18:46;97822.78;;;21.30
27826;BMP280;15077;49.704;9.908;2023-06-14T01:21:25;97813.00;;;21.24
27826;BMP280;15077;49.704;9.908;2023-06-14T01:23:56;97819.25;;;21.21
27826;BMP280;15077;49.704;9.908;2023-06-14T01:26:27;97815.44;;;21.16
27826;BMP280;15077;49.704;9.908;2023-06-14T01:28:59;97816.78;;;21.10
27826;BMP280;15077;49.704;9.908;2023-06-14T01:31:26;97815.16;;;21.09
27826;BMP280;15077;49.704;9.908;2023-06-14T01:33:56;97812.16;;;21.04
27826;BMP280;15077;49.704;9.908;2023-06-14T01:36:27;97814.88;;;21.03
27826;BMP280;15077;49.704;9.908;2023-06-14T01:38:56;97806.59;;;20.99
27826;BMP280;15077;49.704;9.908;2023-06-14T01:41:28;97807.66;;;20.97
27826;BMP280;15077;49.704;9.908;2023-06-14T01:43:58;97809.56;;;20.95
27826;BMP280;15077;49.704;9.908;2023-06-14T01:46:26;97814.03;;;20.93
27826;BMP280;15077;49.704;9.908;2023-06-14T01:48:52;97807.41;;;20.91
27826;BMP280;15077;49.704;9.908;2023-06-14T01:51:17;97812.69;;;20.89
27826;BMP280;15077;49.704;9.908;2023-06-14T01:53:45;97811.03;;;20.88
27826;BMP280;15077;49.704;9.908;2023-06-14T01:56:12;97811.31;;;20.85
27826;BMP280;15077;49.704;9.908;2023-06-14T01:58:39;97807.09;;;20.84
27826;BMP280;15077;49.704;9.908;2023-06-14T02:01:06;97809.78;;;20.83
27826;BMP280;15077;49.704;9.908;2023-06-14T02:03:32;97807.47;;;20.80
27826;BMP280;15077;49.704;9.908;2023-06-14T02:05:58;97813.72;;;20.77
27826;BMP280;15077;49.704;9.908;2023-06-14T02:08:25;97811.41;;;20.74
27826;BMP280;15077;49.704;9.908;2023-06-14T02:10:52;97819.16;;;20.74
27826;BMP280;15077;49.704;9.908;2023-06-14T02:13:18;97814.22;;;20.71
27826;BMP280;15077;49.704;9.908;2023-06-14T02:15:44;97806.84;;;20.67
27826;BMP280;15077;49.704;9.908;2023-06-14T02:18:10;97810.53;;;20.64
27826;BMP280;15077;49.704;9.908;2023-06-14T02:20:37;97814.97;;;20.62
27826;BMP280;15077;49.704;9.908;2023-06-14T02:23:03;97817.81;;;20.59
27826;BMP280;15077;49.704;9.908;2023-06-14T02:25:28;97819.03;;;20.55
27826;BMP280;15077;49.704;9.908;2023-06-14T02:27:55;97820.91;;;20.53
27826;BMP280;15077;49.704;9.908;2023-06-14T02:30:21;97820.34;;;20.50
27826;BMP280;15077;49.704;9.908;2023-06-14T02:32:47;97824.13;;;20.46
27826;BMP280;15077;49.704;9.908;2023-06-14T02:35:14;97825.22;;;20.44
27826;BMP280;15077;49.704;9.908;2023-06-14T02:37:40;97822.06;;;20.40
27826;BMP280;15077;49.704;9.908;2023-06-14T02:40:07;97820.72;;;20.36
27826;BMP280;15077;49.704;9.908;2023-06-14T02:42:34;97820.25;;;20.31
27826;BMP280;15077;49.704;9.908;2023-06-14T02:45:00;97816.31;;;20.27
27826;BMP280;15077;49.704;9.908;2023-06-14T02:47:26;97828.50;;;20.25
27826;BMP280;15077;49.704;9.908;2023-06-14T02:49:51;97834.00;;;20.21
27826;BMP280;15077;49.704;9.908;2023-06-14T02:52:18;97835.19;;;20.17
27826;BMP280;15077;49.704;9.908;2023-06-14T02:54:43;97832.88;;;20.14
27826;BMP280;15077;49.704;9.908;2023-06-14T02:57:09;97833.13;;;20.11
27826;BMP280;15077;49.704;9.908;2023-06-14T02:59:36;97835.03;;;20.09
27826;BMP280;15077;49.704;9.908;2023-06-14T03:02:01;97836.34;;;20.03
27826;BMP280;15077;49.704;9.908;2023-06-14T03:04:28;97847.59;;;20.02
27826;BMP280;15077;49.704;9.908;2023-06-14T03:06:55;97842.81;;;19.98
27826;BMP280;15077;49.704;9.908;2023-06-14T03:09:21;97842.22;;;19.95
27826;BMP280;15077;49.704;9.908;2023-06-14T03:11:47;97842.47;;;19.92
27826;BMP280;15077;49.704;9.908;2023-06-14T03:14:13;97853.84;;;19.89
27826;BMP280;15077;49.704;9.908;2023-06-14T03:16:39;97850.56;;;19.87
27826;BMP280;15077;49.704;9.908;2023-06-14T03:19:06;97849.88;;;19.85
27826;BMP280;15077;49.704;9.908;2023-06-14T03:21:32;97851.88;;;19.82
27826;BMP280;15077;49.704;9.908;2023-06-14T03:24:00;97852.69;;;19.82
27826;BMP280;15077;49.704;9.908;2023-06-14T03:26:28;97853.25;;;19.86
27826;BMP280;15077;49.704;9.908;2023-06-14T03:28:56;97855.94;;;19.84
27826;BMP280;15077;49.704;9.908;2023-06-14T03:31:22;97861.19;;;19.83
27826;BMP280;15077;49.704;9.908;2023-06-14T03:33:49;97856.19;;;19.81
27826;BMP280;15077;49.704;9.908;2023-06-14T03:36:15;97864.03;;;19.80
27826;BMP280;15077;49.704;9.908;2023-06-14T03:38:41;97868.38;;;19.79
27826;BMP280;15077;49.704;9.908;2023-06-14T03:41:07;97868.38;;;19.79
27826;BMP280;15077;49.704;9.908;2023-06-14T03:43:32;97870.22;;;19.77
27826;BMP280;15077;49.704;9.908;2023-06-14T03:45:59;97875.34;;;19.77
27826;BMP280;15077;49.704;9.908;2023-06-14T03:48:25;97873.75;;;19.76
27826;BMP280;15077;49.704;9.908;2023-06-14T03:50:51;97877.25;;;19.75
27826;BMP280;15077;49.704;9.908;2023-06-14T03:53:17;97884.03;;;19.76
27826;BMP280;15077;49.704;9.908;2023-06-14T03:55:46;97898.63;;;19.76
27826;BMP280;15077;49.704;9.908;2023-06-14T03:58:11;97897.00;;;19.75
27826;BMP280;15077;49.704;9.908;2023-06-14T04:00:38;97897.00;;;19.75
27826;BMP280;15077;49.704;9.908;2023-06-14T04:03:05;97898.63;;;19.76
27826;BMP280;15077;49.704;9.908;2023-06-14T04:05:31;97905.41;;;19.77
27826;BMP280;15077;49.704;9.908;2023-06-14T04:07:57;97904.59;;;19.76
27826;BMP280;15077;49.704;9.908;2023-06-14T04:10:26;97907.88;;;19.78
27826;BMP280;15077;49.704;9.908;2023-06-14T04:12:52;97906.22;;;19.77
27826;BMP280;15077;49.704;9.908;2023-06-14T04:15:18;97910.44;;;19.78
27826;BMP280;15077;49.704;9.908;2023-06-14T04:17:43;97909.50;;;19.79
27826;BMP280;15077;49.704;9.908;2023-06-14T04:20:09;97919.31;;;19.85
27826;BMP280;15077;49.704;9.908;2023-06-14T04:22:36;97922.59;;;19.87
27826;BMP280;15077;49.704;9.908;2023-06-14T04:25:02;97916.63;;;19.87
27826;BMP280;15077;49.704;9.908;2023-06-14T04:27:28;97921.06;;;19.85
27826;BMP280;15077;49.704;9.908;2023-06-14T04:29:57;97927.94;;;19.84
27826;BMP280;15077;49.704;9.908;2023-06-14T04:32:26;97924.56;;;19.84
27826;BMP280;15077;49.704;9.908;2023-06-14T04:34:59;97925.38;;;19.84
27826;BMP280;15077;49.704;9.908;2023-06-14T04:37:27;97927.94;;;19.84
27826;BMP280;15077;49.704;9.908;2023-06-14T04:39:55;97934.06;;;19.83
27826;BMP280;15077;49.704;9.908;2023-06-14T04:42:22;97935.78;;;19.83
27826;BMP280;15077;49.704;9.908;2023-06-14T04:44:51;97938.75;;;19.89
27826;BMP280;15077;49.704;9.908;2023-06-14T04:47:17;97931.03;;;19.89
27826;BMP280;15077;49.704;9.908;2023-06-14T04:49:43;97929.25;;;19.90
27826;BMP280;15077;49.704;9.908;2023-06-14T04:52:10;97932.63;;;19.90
27826;BMP280;15077;49.704;9.908;2023-06-14T04:54:36;97931.03;;;19.89
27826;BMP280;15077;49.704;9.908;2023-06-14T04:57:09;97931.03;;;19.89
27826;BMP280;15077;49.704;9.908;2023-06-14T04:59:40;97933.59;;;19.89
27826;BMP280;15077;49.704;9.908;2023-06-14T05:02:06;97938.63;;;19.91
27826;BMP280;15077;49.704;9.908;2023-06-14T05:04:32;97934.28;;;19.91
27826;BMP280;15077;49.704;9.908;2023-06-14T05:06:58;97935.91;;;19.92
27826;BMP280;15077;49.704;9.908;2023-06-14T05:09:24;97941.88;;;19.93
27826;BMP280;15077;49.704;9.908;2023-06-14T05:11:50;97939.19;;;19.94
27826;BMP280;15077;49.704;9.908;2023-06-14T05:14:16;97938.25;;;19.95
27826;BMP280;15077;49.704;9.908;2023-06-14T05:16:43;97936.47;;;19.96
27826;BMP280;15077;49.704;9.908;2023-06-14T05:19:09;97939.75;;;19.97
27826;BMP280;15077;49.704;9.908;2023-06-14T05:21:36;97933.53;;;20.00
27826;BMP280;15077;49.704;9.908;2023-06-14T05:24:03;97942.91;;;20.01
27826;BMP280;15077;49.704;9.908;2023-06-14T05:26:29;97946.16;;;20.03
27826;BMP280;15077;49.704;9.908;2023-06-14T05:28:57;97940.88;;;20.04
27826;BMP280;15077;49.704;9.908;2023-06-14T05:31:26;97951.72;;;20.08
27826;BMP280;15077;49.704;9.908;2023-06-14T05:33:53;97943.91;;;20.09
27826;BMP280;15077;49.704;9.908;2023-06-14T05:36:20;97939.59;;;20.10
27826;BMP280;15077;49.704;9.908;2023-06-14T05:38:49;97953.13;;;20.12
27826;BMP280;15077;49.704;9.908;2023-06-14T05:41:16;97955.47;;;20.15
27826;BMP280;15077;49.704;9.908;2023-06-14T05:43:42;97958.72;;;20.17
27826;BMP280;15077;49.704;9.908;2023-06-14T05:46:08;97959.31;;;20.20
27826;BMP280;15077;49.704;9.908;2023-06-14T05:48:33;97956.47;;;20.23
27826;BMP280;15077;49.704;9.908;2023-06-14T05:50:59;97954.59;;;20.25
27826;BMP280;15077;49.704;9.908;2023-06-14T05:53:25;97953.53;;;20.28
27826;BMP280;15077;49.704;9.908;2023-06-14T05:55:51;97960.09;;;20.32
27826;BMP280;15077;49.704;9.908;2023-06-14T05:58:19;97959.84;;;20.35
27826;BMP280;15077;49.704;9.908;2023-06-14T06:00:45;97964.72;;;20.38
27826;BMP280;15077;49.704;9.908;2023-06-14T06:03:11;97958.38;;;20.42
27826;BMP280;15077;49.704;9.908;2023-06-14T06:05:39;97963.13;;;20.46
27826;BMP280;15077;49.704;9.908;2023-06-14T06:08:04;97963.72;;;20.49
27826;BMP280;15077;49.704;9.908;2023-06-14T06:10:30;97963.47;;;20.52
27826;BMP280;15077;49.704;9.908;2023-06-14T06:12:56;97969.97;;;20.56
27826;BMP280;15077;49.704;9.908;2023-06-14T06:15:22;97971.38;;;20.60
27826;BMP280;15077;49.704;9.908;2023-06-14T06:17:48;97966.66;;;20.65
27826;BMP280;15077;49.704;9.908;2023-06-14T06:20:13;97973.44;;;20.66
27826;BMP280;15077;49.704;9.908;2023-06-14T06:22:39;97965.63;;;20.68
27826;BMP280;15077;49.704;9.908;2023-06-14T06:25:06;97968.75;;;20.71
27826;BMP280;15077;49.704;9.908;2023-06-14T06:27:33;97970.53;;;20.71
27826;BMP280;15077;49.704;9.908;2023-06-14T06:29:59;97985.59;;;20.75
27826;BMP280;15077;49.704;9.908;2023-06-14T06:32:24;97986.97;;;20.79
27826;BMP280;15077;49.704;9.908;2023-06-14T06:34:50;97989.31;;;20.82
27826;BMP280;15077;49.704;9.908;2023-06-14T06:37:17;97991.38;;;20.88
27826;BMP280;15077;49.704;9.908;2023-06-14T06:39:43;97988.53;;;20.91
27826;BMP280;15077;49.704;9.908;2023-06-14T06:42:09;97988.97;;;20.96
27826;BMP280;15077;49.704;9.908;2023-06-14T06:44:35;97992.00;;;21.01
27826;BMP280;15077;49.704;9.908;2023-06-14T06:47:00;97986.31;;;21.07
27826;BMP280;15077;49.704;9.908;2023-06-14T06:49:27;97990.97;;;21.13
27826;BMP280;15077;49.704;9.908;2023-06-14T06:52:06;97996.53;;;21.18
27826;BMP280;15077;49.704;9.908;2023-06-14T06:54:33;97996.16;;;21.22
27826;BMP280;15077;49.704;9.908;2023-06-14T06:56:59;97997.56;;;21.36
27826;BMP280;15077;49.704;9.908;2023-06-14T06:59:27;97998.94;;;21.40
27826;BMP280;15077;49.704;9.908;2023-06-14T07:01:53;98001.94;;;21.44
27826;BMP280;15077;49.704;9.908;2023-06-14T07:04:19;97993.03;;;21.48
27826;BMP280;15077;49.704;9.908;2023-06-14T07:06:46;97994.16;;;21.55
27826;BMP280;15077;49.704;9.908;2023-06-14T07:09:13;97992.78;;;21.61
27826;BMP280;15077;49.704;9.908;2023-06-14T07:11:42;97996.34;;;21.69
27826;BMP280;15077;49.704;9.908;2023-06-14T07:14:08;97994.19;;;21.74
27826;BMP280;15077;49.704;9.908;2023-06-14T07:16:33;97992.03;;;21.79
27826;BMP280;15077;49.704;9.908;2023-06-14T07:18:59;97992.56;;;21.83
27826;BMP280;15077;49.704;9.908;2023-06-14T07:21:26;97991.22;;;21.88
27826;BMP280;15077;49.704;9.908;2023-06-14T07:23:53;97984.72;;;21.93
27826;BMP280;15077;49.704;9.908;2023-06-14T07:26:19;97992.34;;;21.95
27826;BMP280;15077;49.704;9.908;2023-06-14T07:28:47;97999.53;;;22.01
27826;BMP280;15077;49.704;9.908;2023-06-14T07:31:13;98002.53;;;22.06
27826;BMP280;15077;49.704;9.908;2023-06-14T07:33:40;97999.53;;;22.10
27826;BMP280;15077;49.704;9.908;2023-06-14T07:36:06;98002.69;;;22.14
27826;BMP280;15077;49.704;9.908;2023-06-14T07:38:32;98000.50;;;22.19
27826;BMP280;15077;49.704;9.908;2023-06-14T07:40:58;98001.91;;;22.23
27826;BMP280;15077;49.704;9.908;2023-06-14T07:43:24;98011.56;;;22.30
27826;BMP280;15077;49.704;9.908;2023-06-14T07:45:49;98013.59;;;22.36
27826;BMP280;15077;49.704;9.908;2023-06-14T07:48:15;98013.19;;;22.41
27826;BMP280;15077;49.704;9.908;2023-06-14T07:50:41;98003.91;;;22.47
27826;BMP280;15077;49.704;9.908;2023-06-14T07:53:07;98002.44;;;22.54
27826;BMP280;15077;49.704;9.908;2023-06-14T07:55:32;98002.84;;;22.59
27826;BMP280;15077;49.704;9.908;2023-06-14T07:58:03;98010.06;;;22.65
27826;BMP280;15077;49.704;9.908;2023-06-14T08:00:29;98006.22;;;22.69
27826;BMP280;15077;49.704;9.908;2023-06-14T08:02:54;98005.66;;;22.75
27826;BMP280;15077;49.704;9.908;2023-06-14T08:05:27;98003.22;;;22.83
27826;BMP280;15077;49.704;9.908;2023-06-14T08:07:53;98004.41;;;22.89
27826;BMP280;15077;49.704;9.908;2023-06-14T08:10:20;98012.19;;;22.98
27826;BMP280;15077;49.704;9.908;2023-06-14T08:12:46;98011.63;;;23.04
27826;BMP280;15077;49.704;9.908;2023-06-14T08:15:12;98007.53;;;23.11
27826;BMP280;15077;49.704;9.908;2023-06-14T08:17:38;98006.00;;;23.18
27826;BMP280;15077;49.704;9.908;2023-06-14T08:20:04;98006.94;;;23.26
27826;BMP280;15077;49.704;9.908;2023-06-14T08:22:31;98017.50;;;23.33
27826;BMP280;15077;49.704;9.908;2023-06-14T08:25:00;98009.72;;;23.42
27826;BMP280;15077;49.704;9.908;2023-06-14T08:27:27;98005.47;;;23.50
27826;BMP280;15077;49.704;9.908;2023-06-14T08:29:53;98019.16;;;23.60
27826;BMP280;15077;49.704;9.908;2023-06-14T08:32:19;98008.66;;;23.71
27826;BMP280;15077;49.704;9.908;2023-06-14T08:34:45;98004.22;;;23.81
27826;BMP280;15077;49.704;9.908;2023-06-14T08:37:11;98008.53;;;23.90
27826;BMP280;15077;49.704;9.908;2023-06-14T08:39:37;98015.47;;;23.99
27826;BMP280;15077;49.704;9.908;2023-06-14T08:42:03;98010.06;;;24.10
27826;BMP280;15077;49.704;9.908;2023-06-14T08:44:31;97999.63;;;24.19
27826;BMP280;15077;49.704;9.908;2023-06-14T08:46:59;98008.44;;;24.26
27826;BMP280;15077;49.704;9.908;2023-06-14T08:49:26;98011.94;;;24.35
27826;BMP280;15077;49.704;9.908;2023-06-14T08:52:00;98003.13;;;24.45
27826;BMP280;15077;49.704;9.908;2023-06-14T08:54:29;98011.81;;;24.53
27826;BMP280;15077;49.704;9.908;2023-06-14T08:56:59;98008.81;;;24.66
27826;BMP280;15077;49.704;9.908;2023-06-14T08:59:29;98011.69;;;24.80
27826;BMP280;15077;49.704;9.908;2023-06-14T09:01:56;98010.78;;;24.89
27826;BMP280;15077;49.704;9.908;2023-06-14T09:04:23;98005.47;;;24.98
27826;BMP280;15077;49.704;9.908;2023-06-14T09:06:53;98008.97;;;25.07
27826;BMP280;15077;49.704;9.908;2023-06-14T09:09:21;98011.28;;;25.18
27826;BMP280;15077;49.704;9.908;2023-06-14T09:11:50;98007.78;;;25.27
27826;BMP280;15077;49.704;9.908;2023-06-14T09:14:17;98008.94;;;25.32
27826;BMP280;15077;49.704;9.908;2023-06-14T09:16:44;98004.78;;;25.39
27826;BMP280;15077;49.704;9.908;2023-06-14T09:19:21;98012.09;;;25.43
27826;BMP280;15077;49.704;9.908;2023-06-14T09:21:49;98018.00;;;25.53
27826;BMP280;15077;49.704;9.908;2023-06-14T09:24:15;98013.34;;;25.65
27826;BMP280;15077;49.704;9.908;2023-06-14T09:26:41;98017.59;;;25.74
27826;BMP280;15077;49.704;9.908;2023-06-14T09:29:07;98013.75;;;25.86
27826;BMP280;15077;49.704;9.908;2023-06-14T09:31:35;98008.41;;;25.95
27826;BMP280;15077;49.704;9.908;2023-06-14T09:34:02;98016.22;;;26.03
27826;BMP280;15077;49.704;9.908;2023-06-14T09:36:31;98016.09;;;26.12
27826;BMP280;15077;49.704;9.908;2023-06-14T09:39:03;98016.75;;;26.22
27826;BMP280;15077;49.704;9.908;2023-06-14T09:41:34;98017.78;;;26.29
27826;BMP280;15077;49.704;9.908;2023-06-14T09:44:03;98017.63;;;26.39
27826;BMP280;15077;49.704;9.908;2023-06-14T09:46:30;98016.66;;;26.47
27826;BMP280;15077;49.704;9.908;2023-06-14T09:49:01;98014.69;;;26.57
27826;BMP280;15077;49.704;9.908;2023-06-14T09:51:28;98019.91;;;26.65
27826;BMP280;15077;49.704;9.908;2023-06-14T09:54:04;98009.34;;;26.75
27826;BMP280;15077;49.704;9.908;2023-06-14T09:56:37;98005.25;;;26.88
27826;BMP280;15077;49.704;9.908;2023-06-14T09:59:06;98005.63;;;26.93
27826;BMP280;15077;49.704;9.908;2023-06-14T10:01:43;98010.97;;;26.99
27826;BMP280;15077;49.704;9.908;2023-06-14T10:04:10;98017.31;;;27.05
27826;BMP280;15077;49.704;9.908;2023-06-14T10:06:39;98015.03;;;27.10
27826;BMP280;15077;49.704;9.908;2023-06-14T10:09:08;98024.28;;;27.12
27826;BMP280;15077;49.704;9.908;2023-06-14T10:11:36;98016.66;;;27.11
27826;BMP280;15077;49.704;9.908;2023-06-14T10:14:05;98017.28;;;27.13
27826;BMP280;15077;49.704;9.908;2023-06-14T10:17:03;98018.25;;;27.20
27826;BMP280;15077;49.704;9.908;2023-06-14T10:19:48;98007.03;;;27.27
27826;BMP280;15077;49.704;9.908;2023-06-14T10:22:26;98003.72;;;27.41
27826;BMP280;15077;49.704;9.908;2023-06-14T10:24:55;98005.81;;;27.53
27826;BMP280;15077;49.704;9.908;2023-06-14T10:27:21;98003.69;;;27.65
27826;BMP280;15077;49.704;9.908;2023-06-14T10:32:24;98013.66;;;27.84
27826;BMP280;15077;49.704;9.908;2023-06-14T10:35:04;98018.34;;;27.88
27826;BMP280;15077;49.704;9.908;2023-06-14T10:37:32;98004.69;;;27.86
27826;BMP280;15077;49.704;9.908;2023-06-14T10:39:58;98009.28;;;27.84
27826;BMP280;15077;49.704;9.908;2023-06-14T10:42:31;98006.34;;;27.79
27826;BMP280;15077;49.704;9.908;2023-06-14T10:44:58;98004.44;;;27.73
27826;BMP280;15077;49.704;9.908;2023-06-14T10:47:35;98008.38;;;27.69
27826;BMP280;15077;49.704;9.908;2023-06-14T10:52:29;98001.53;;;27.60
27826;BMP280;15077;49.704;9.908;2023-06-14T10:55:11;98006.75;;;27.60
27826;BMP280;15077;49.704;9.908;2023-06-14T10:57:48;98005.09;;;27.67
27826;BMP280;15077;49.704;9.908;2023-06-14T11:00:24;98013.25;;;27.72
27826;BMP280;15077;49.704;9.908;2023-06-14T11:05:54;98008.72;;;27.66
27826;BMP280;15077;49.704;9.908;2023-06-14T11:10:59;98016.03;;;27.71
27826;BMP280;15077;49.704;9.908;2023-06-14T11:13:26;98012.28;;;27.65
27826;BMP280;15077;49.704;9.908;2023-06-14T11:15:52;98011.00;;;27.61
27826;BMP280;15077;49.704;9.908;2023-06-14T11:18:22;98014.78;;;27.51
27826;BMP280;15077;49.704;9.908;2023-06-14T11:20:51;98005.97;;;27.44
27826;BMP280;15077;49.704;9.908;2023-06-14T11:23:17;97996.06;;;27.39
27826;BMP280;15077;49.704;9.908;2023-06-14T11:25:43;97999.66;;;27.38
27826;BMP280;15077;49.704;9.908;2023-06-14T11:28:09;98001.44;;;27.38
27826;BMP280;15077;49.704;9.908;2023-06-14T11:30:35;97998.50;;;27.41
27826;BMP280;15077;49.704;9.908;2023-06-14T11:33:00;97995.22;;;27.47
27826;BMP280;15077;49.704;9.908;2023-06-14T11:35:26;97988.06;;;27.57
27826;BMP280;15077;49.704;9.908;2023-06-14T11:37:56;97988.34;;;27.70
27826;BMP280;15077;49.704;9.908;2023-06-14T11:40:26;97988.63;;;27.83
27826;BMP280;15077;49.704;9.908;2023-06-14T11:43:02;97989.53;;;27.89
27826;BMP280;15077;49.704;9.908;2023-06-14T11:45:30;97999.50;;;27.86
27826;BMP280;15077;49.704;9.908;2023-06-14T11:47:57;98006.00;;;27.82
27826;BMP280;15077;49.704;9.908;2023-06-14T11:50:24;98008.00;;;27.80
27826;BMP280;15077;49.704;9.908;2023-06-14T11:52:58;98006.53;;;27.78
27826;BMP280;15077;49.704;9.908;2023-06-14T11:55:26;98002.84;;;27.72
27826;BMP280;15077;49.704;9.908;2023-06-14T11:57:54;98001.88;;;27.65
27826;BMP280;15077;49.704;9.908;2023-06-14T12:00:27;98002.56;;;27.59
27826;BMP280;15077;49.704;9.908;2023-06-14T12:02:57;97990.50;;;27.58
27826;BMP280;15077;49.704;9.908;2023-06-14T12:05:24;98001.88;;;27.57
27826;BMP280;15077;49.704;9.908;2023-06-14T12:08:03;98006.75;;;27.60
27826;BMP280;15077;49.704;9.908;2023-06-14T12:10:40;98007.09;;;27.65
27826;BMP280;15077;49.704;9.908;2023-06-14T12:13:09;98002.84;;;27.72
27826;BMP280;15077;49.704;9.908;2023-06-14T12:15:35;98001.31;;;27.78
27826;BMP280;15077;49.704;9.908;2023-06-14T12:18:06;98000.97;;;27.81
27826;BMP280;15077;49.704;9.908;2023-06-14T12:20:33;97999.84;;;27.83
27826;BMP280;15077;49.704;9.908;2023-06-14T12:23:03;97998.50;;;27.87
27826;BMP280;15077;49.704;9.908;2023-06-14T12:25:33;97994.09;;;27.88
27826;BMP280;15077;49.704;9.908;2023-06-14T12:28:07;97987.09;;;27.88
27826;BMP280;15077;49.704;9.908;2023-06-14T12:30:35;97988.38;;;27.92
27826;BMP280;15077;49.704;9.908;2023-06-14T12:33:05;97991.94;;;27.99
27826;BMP280;15077;49.704;9.908;2023-06-14T12:35:31;97992.69;;;28.07
27826;BMP280;15077;49.704;9.908;2023-06-14T12:37:57;97994.13;;;28.18
27826;BMP280;15077;49.704;9.908;2023-06-14T12:40:23;97996.69;;;28.26
27826;BMP280;15077;49.704;9.908;2023-06-14T12:42:49;97993.66;;;28.37
27826;BMP280;15077;49.704;9.908;2023-06-14T12:45:15;97983.81;;;28.46
27826;BMP280;15077;49.704;9.908;2023-06-14T12:47:41;97982.56;;;28.57
27826;BMP280;15077;49.704;9.908;2023-06-14T12:50:08;97983.63;;;28.70
27826;BMP280;15077;49.704;9.908;2023-06-14T12:52:34;97991.22;;;28.80
27826;BMP280;15077;49.704;9.908;2023-06-14T12:55:04;97988.09;;;28.84
27826;BMP280;15077;49.704;9.908;2023-06-14T12:57:30;97991.31;;;28.86
27826;BMP280;15077;49.704;9.908;2023-06-14T12:59:56;98003.03;;;28.90
27826;BMP280;15077;49.704;9.908;2023-06-14T13:02:22;97996.09;;;28.97
27826;BMP280;15077;49.704;9.908;2023-06-14T13:04:50;97991.78;;;29.04
27826;BMP280;15077;49.704;9.908;2023-06-14T13:07:16;97992.72;;;29.11
27826;BMP280;15077;49.704;9.908;2023-06-14T13:09:43;97999.03;;;29.16
27826;BMP280;15077;49.704;9.908;2023-06-14T13:12:10;97991.00;;;29.18
27826;BMP280;15077;49.704;9.908;2023-06-14T13:14:41;97992.06;;;29.23
27826;BMP280;15077;49.704;9.908;2023-06-14T13:17:10;97987.34;;;29.27
27826;BMP280;15077;49.704;9.908;2023-06-14T13:19:36;97997.78;;;29.27
27826;BMP280;15077;49.704;9.908;2023-06-14T13:22:03;97989.13;;;29.26
27826;BMP280;15077;49.704;9.908;2023-06-14T13:24:29;97994.81;;;29.30
27826;BMP280;15077;49.704;9.908;2023-06-14T13:26:56;97994.47;;;29.33
27826;BMP280;15077;49.704;9.908;2023-06-14T13:29:23;97994.09;;;29.36
27826;BMP280;15077;49.704;9.908;2023-06-14T13:31:49;97985.63;;;29.34
27826;BMP280;15077;49.704;9.908;2023-06-14T13:34:16;97991.19;;;29.31
27826;BMP280;15077;49.704;9.908;2023-06-14T13:36:41;97989.31;;;29.25
27826;BMP280;15077;49.704;9.908;2023-06-14T13:39:07;97986.22;;;29.21
27826;BMP280;15077;49.704;9.908;2023-06-14T13:41:33;97988.66;;;29.23
27826;BMP280;15077;49.704;9.908;2023-06-14T13:44:01;97984.75;;;29.27
27826;BMP280;15077;49.704;9.908;2023-06-14T13:46:29;97981.78;;;29.30
27826;BMP280;15077;49.704;9.908;2023-06-14T13:48:55;97977.16;;;29.32
27826;BMP280;15077;49.704;9.908;2023-06-14T13:51:21;97980.41;;;29.34
27826;BMP280;15077;49.704;9.908;2023-06-14T13:53:48;97982.47;;;29.38
27826;BMP280;15077;49.704;9.908;2023-06-14T13:56:15;97980.50;;;29.40
27826;BMP280;15077;49.704;9.908;2023-06-14T13:58:41;97977.06;;;29.39
27826;BMP280;15077;49.704;9.908;2023-06-14T14:01:07;97979.84;;;29.38
27826;BMP280;15077;49.704;9.908;2023-06-14T14:03:33;97977.16;;;29.32
27826;BMP280;15077;49.704;9.908;2023-06-14T14:06:01;97985.38;;;29.29
27826;BMP280;15077;49.704;9.908;2023-06-14T14:08:27;97974.31;;;29.27
27826;BMP280;15077;49.704;9.908;2023-06-14T14:10:53;97977.09;;;29.25
27826;BMP280;15077;49.704;9.908;2023-06-14T14:13:19;97967.88;;;29.29
27826;BMP280;15077;49.704;9.908;2023-06-14T14:15:46;97977.34;;;29.30
27826;BMP280;15077;49.704;9.908;2023-06-14T14:18:12;97973.09;;;29.29
27826;BMP280;15077;49.704;9.908;2023-06-14T14:20:38;97973.09;;;29.29
27826;BMP280;15077;49.704;9.908;2023-06-14T14:23:03;97970.97;;;29.33